Time,TemperatureF,DewpointF,PressureIn,WindDirection,WindDirectionDegrees,WindSpeedMPH,WindSpeedGustMPH,Humidity,HourlyPrecipIn,Conditions,Clouds,dailyrainin,SoftwareType,DateUTC
2013-07-14 00:04:00,65.2,34.0,29.85,NNE,14,10.0,12.0,32,0.00,,,0.00,weatherlink.com 1.10,2013-07-14 06:04:00,
2013-07-14 00:19:00,64.7,35.0,29.85,NNE,22,10.0,11.0,33,0.00,,,0.00,weatherlink.com 1.10,2013-07-14 06:19:00,
2013-07-14 00:34:00,63.8,34.0,29.85,NNE,17,11.0,12.0,33,0.00,,,0.00,weatherlink.com 1.10,2013-07-14 06:34:00,
2013-07-14 00:49:00,63.4,34.0,29.85,NNW,344,9.0,14.0,34,0.00,,,0.00,weatherlink.com 1.10,2013-07-14 06:49:00,
2013-07-14 01:04:00,62.4,35.0,29.85,North,360,6.0,13.0,36,0.00,,,0.00,weatherlink.com 1.10,2013-07-14 07:04:00,
2013-07-14 01:19:00,61.1,35.0,29.86,NE,34,8.0,11.0,38,0.00,,,0.00,weatherlink.com 1.10,2013-07-14 07:19:00,
2013-07-14 01:34:00,61.3,35.0,29.85,North,5,8.0,11.0,38,0.00,,,0.00,weatherlink.com 1.10,2013-07-14 07:34:00,
2013-07-14 01:49:00,61.0,35.0,29.85,NNW,340,15.0,16.0,38,0.00,,,0.00,weatherlink.com 1.10,2013-07-14 07:49:00,
2013-07-14 02:04:00,60.3,35.0,29.85,North,5,11.0,13.0,39,0.00,,,0.00,weatherlink.com 1.10,2013-07-14 08:04:00,
2013-07-14 02:19:00,58.7,35.0,29.85,NNW,338,13.0,13.0,42,0.00,,,0.00,weatherlink.com 1.10,2013-07-14 08:19:00,
2013-07-14 02:34:00,58.9,36.0,29.85,North,355,7.0,11.0,42,0.00,,,0.00,weatherlink.com 1.10,2013-07-14 08:34:00,
2013-07-14 02:49:00,58.1,35.0,29.85,NNW,342,6.0,13.0,43,0.00,,,0.00,weatherlink.com 1.10,2013-07-14 08:49:00,
2013-07-14 03:04:00,57.7,36.0,29.86,NNW,342,10.0,12.0,44,0.00,,,0.00,weatherlink.com 1.10,2013-07-14 09:04:00,
2013-07-14 03:19:00,56.9,36.0,29.86,North,355,6.0,11.0,46,0.00,,,0.00,weatherlink.com 1.10,2013-07-14 09:19:00,
2013-07-14 03:34:00,56.5,36.0,29.86,NNE,14,8.0,10.0,46,0.00,,,0.00,weatherlink.com 1.10,2013-07-14 09:34:00,
2013-07-14 03:49:00,56.3,36.0,29.86,North,11,5.0,10.0,46,0.00,,,0.00,weatherlink.com 1.10,2013-07-14 09:49:00,
2013-07-14 04:04:00,55.8,36.0,29.87,North,5,6.0,10.0,47,0.00,,,0.00,weatherlink.com 1.10,2013-07-14 10:04:00,
2013-07-14 04:19:00,55.5,36.0,29.87,North,5,6.0,10.0,48,0.00,,,0.00,weatherlink.com 1.10,2013-07-14 10:19:00,
2013-07-14 04:35:00,54.9,36.0,29.88,NNW,346,5.0,9.0,49,0.00,,,0.00,weatherlink.com 1.10,2013-07-14 10:35:00,
2013-07-14 04:50:00,54.9,36.0,29.88,NNE,30,5.0,9.0,49,0.00,,,0.00,weatherlink.com 1.10,2013-07-14 10:50:00,
2013-07-14 05:05:00,54.1,36.0,29.88,NNW,347,4.0,8.0,51,0.00,,,0.00,weatherlink.com 1.10,2013-07-14 11:05:00,
2013-07-14 05:20:00,53.3,36.0,29.89,NNE,12,2.0,5.0,52,0.00,,,0.00,weatherlink.com 1.10,2013-07-14 11:20:00,
2013-07-14 05:35:00,53.9,36.0,29.89,NNE,22,2.0,8.0,51,0.00,,,0.00,weatherlink.com 1.10,2013-07-14 11:35:00,
2013-07-14 05:50:00,51.7,37.0,29.89,NW,321,0.0,4.0,58,0.00,,,0.00,weatherlink.com 1.10,2013-07-14 11:50:00,
2013-07-14 06:05:00,49.0,38.0,29.89,NW,321,0.0,0.0,67,0.00,,,0.00,weatherlink.com 1.10,2013-07-14 12:05:00,
2013-07-14 06:20:00,47.9,39.0,29.90,East,101,0.0,3.0,72,0.00,,,0.00,weatherlink.com 1.10,2013-07-14 12:20:00,
2013-07-14 06:35:00,47.8,40.0,29.91,East,101,0.0,0.0,74,0.00,,,0.00,weatherlink.com 1.10,2013-07-14 12:35:00,
2013-07-14 06:50:00,47.2,39.0,29.93,East,101,0.0,0.0,73,0.00,,,0.00,weatherlink.com 1.10,2013-07-14 12:50:00,
2013-07-14 07:05:00,48.4,39.0,29.93,East,101,0.0,0.0,71,0.00,,,0.00,weatherlink.com 1.10,2013-07-14 13:05:00,
2013-07-14 07:20:00,49.9,41.0,29.93,East,101,0.0,0.0,72,0.00,,,0.00,weatherlink.com 1.10,2013-07-14 13:20:00,
2013-07-14 07:35:00,51.2,41.0,29.93,East,101,0.0,0.0,68,0.00,,,0.00,weatherlink.com 1.10,2013-07-14 13:35:00,
2013-07-14 07:50:00,53.0,41.0,29.93,East,101,0.0,0.0,65,0.00,,,0.00,weatherlink.com 1.10,2013-07-14 13:50:00,
2013-07-14 08:05:00,53.7,41.0,29.93,East,85,1.0,2.0,62,0.00,,,0.00,weatherlink.com 1.10,2013-07-14 14:05:00,
2013-07-14 08:20:00,55.0,41.0,29.93,WSW,248,1.0,3.0,59,0.00,,,0.00,weatherlink.com 1.10,2013-07-14 14:20:00,
2013-07-14 08:35:00,56.9,42.0,29.94,West,259,2.0,3.0,57,0.00,,,0.00,weatherlink.com 1.10,2013-07-14 14:35:00,
2013-07-14 08:50:00,58.0,42.0,29.95,SW,219,1.0,2.0,55,0.00,,,0.00,weatherlink.com 1.10,2013-07-14 14:50:00,
2013-07-14 09:05:00,58.6,41.0,29.95,SSW,196,1.0,5.0,53,0.00,,,0.00,weatherlink.com 1.10,2013-07-14 15:05:00,
2013-07-14 09:21:00,59.3,41.0,29.94,SW,232,1.0,7.0,51,0.00,,,0.00,weatherlink.com 1.10,2013-07-14 15:21:00,
2013-07-14 09:36:00,60.2,42.0,29.93,South,175,0.0,6.0,51,0.00,,,0.00,weatherlink.com 1.10,2013-07-14 15:36:00,
2013-07-14 09:51:00,61.5,40.0,29.94,East,96,0.0,4.0,46,0.00,,,0.00,weatherlink.com 1.10,2013-07-14 15:51:00,
2013-07-14 10:06:00,63.2,41.0,29.93,NNW,329,2.0,4.0,45,0.00,,,0.00,weatherlink.com 1.10,2013-07-14 16:06:00,
2013-07-14 10:21:00,64.2,40.0,29.92,WNW,296,0.0,4.0,42,0.00,,,0.00,weatherlink.com 1.10,2013-07-14 16:21:00,
2013-07-14 10:36:00,65.4,42.0,29.91,NW,321,4.0,6.0,42,0.00,,,0.00,weatherlink.com 1.10,2013-07-14 16:36:00,
2013-07-14 10:51:00,67.0,42.0,29.91,WSW,257,1.0,6.0,40,0.00,,,0.00,weatherlink.com 1.10,2013-07-14 16:51:00,
2013-07-14 11:06:00,68.5,40.0,29.90,SSW,213,0.0,6.0,36,0.00,,,0.00,weatherlink.com 1.10,2013-07-14 17:06:00,
2013-07-14 11:21:00,69.7,39.0,29.90,SW,234,1.0,6.0,33,0.00,,,0.00,weatherlink.com 1.10,2013-07-14 17:21:00,
2013-07-14 11:36:00,70.8,39.0,29.89,SSW,193,6.0,7.0,32,0.00,,,0.00,weatherlink.com 1.10,2013-07-14 17:36:00,
2013-07-14 11:51:00,71.9,40.0,29.88,SW,214,2.0,5.0,32,0.00,,,0.00,weatherlink.com 1.10,2013-07-14 17:51:00,
2013-07-14 12:06:00,74.2,37.0,29.88,SW,221,7.0,7.0,26,0.00,,,0.00,weatherlink.com 1.10,2013-07-14 18:06:00,
2013-07-14 12:21:00,76.1,37.0,29.87,South,172,2.0,10.0,24,0.00,,,0.00,weatherlink.com 1.10,2013-07-14 18:21:00,
2013-07-14 12:36:00,76.0,36.0,29.87,SSW,207,4.0,9.0,23,0.00,,,0.00,weatherlink.com 1.10,2013-07-14 18:36:00,
2013-07-14 12:51:00,76.8,36.0,29.86,SW,231,5.0,8.0,23,0.00,,,0.00,weatherlink.com 1.10,2013-07-14 18:51:00,
2013-07-14 13:06:00,77.5,38.0,29.85,WSW,238,2.0,6.0,24,0.00,,,0.00,weatherlink.com 1.10,2013-07-14 19:06:00,
2013-07-14 13:21:00,78.2,36.0,29.85,North,351,2.0,6.0,22,0.00,,,0.00,weatherlink.com 1.10,2013-07-14 19:21:00,
2013-07-14 13:36:00,79.8,40.0,29.84,SW,233,2.0,6.0,24,0.00,,,0.00,weatherlink.com 1.10,2013-07-14 19:36:00,
2013-07-14 13:51:00,80.5,36.0,29.84,South,170,3.0,8.0,20,0.00,,,0.00,weatherlink.com 1.10,2013-07-14 19:51:00,
2013-07-14 14:07:00,81.2,36.0,29.83,South,187,2.0,7.0,20,0.00,,,0.00,weatherlink.com 1.10,2013-07-14 20:07:00,
2013-07-14 14:22:00,81.5,37.0,29.83,South,172,3.0,12.0,20,0.00,,,0.00,weatherlink.com 1.10,2013-07-14 20:22:00,
2013-07-14 14:37:00,82.5,39.0,29.82,South,190,5.0,9.0,21,0.00,,,0.00,weatherlink.com 1.10,2013-07-14 20:37:00,
2013-07-14 14:52:00,83.5,37.0,29.81,South,182,1.0,9.0,19,0.00,,,0.00,weatherlink.com 1.10,2013-07-14 20:52:00,
2013-07-14 15:07:00,83.3,37.0,29.80,South,173,3.0,10.0,19,0.00,,,0.00,weatherlink.com 1.10,2013-07-14 21:07:00,
2013-07-14 15:22:00,83.8,37.0,29.80,SSW,193,7.0,10.0,19,0.00,,,0.00,weatherlink.com 1.10,2013-07-14 21:22:00,
2013-07-14 15:37:00,85.2,37.0,29.79,NNW,343,2.0,7.0,18,0.00,,,0.00,weatherlink.com 1.10,2013-07-14 21:37:00,
2013-07-14 15:52:00,87.6,36.0,29.79,West,262,1.0,5.0,16,0.00,,,0.00,weatherlink.com 1.10,2013-07-14 21:52:00,
2013-07-14 16:07:00,86.4,34.0,29.78,ENE,72,1.0,8.0,15,0.00,,,0.00,weatherlink.com 1.10,2013-07-14 22:07:00,
2013-07-14 16:22:00,87.0,34.0,29.77,NE,42,4.0,7.0,15,0.00,,,0.00,weatherlink.com 1.10,2013-07-14 22:22:00,
2013-07-14 16:37:00,86.3,33.0,29.76,NNE,18,3.0,12.0,15,0.00,,,0.00,weatherlink.com 1.10,2013-07-14 22:37:00,
2013-07-14 16:52:00,87.5,34.0,29.76,SSW,196,0.0,7.0,15,0.00,,,0.00,weatherlink.com 1.10,2013-07-14 22:52:00,
2013-07-14 17:07:00,88.0,39.0,29.75,NW,309,5.0,10.0,18,0.00,,,0.00,weatherlink.com 1.10,2013-07-14 23:07:00,
2013-07-14 17:22:00,88.2,37.0,29.75,SW,225,0.0,5.0,16,0.00,,,0.00,weatherlink.com 1.10,2013-07-14 23:22:00,
2013-07-14 17:37:00,88.3,37.0,29.74,WNW,283,2.0,6.0,16,0.00,,,0.00,weatherlink.com 1.10,2013-07-14 23:37:00,
2013-07-14 17:52:00,-999.0,-99.9,29.74,North,-999,-999.0,-999.0,-999,0.00,,,0.00,weatherlink.com 1.10,2013-07-14 23:52:00,
2013-07-14 18:07:00,-999.0,-99.9,29.73,North,-999,-999.0,-999.0,-999,0.00,,,0.00,weatherlink.com 1.10,2013-07-15 00:07:00,
2013-07-14 18:22:00,-999.0,-99.9,29.73,North,-999,-999.0,-999.0,-999,0.00,,,0.00,weatherlink.com 1.10,2013-07-15 00:22:00,
2013-07-14 18:37:00,-999.0,-99.9,29.72,North,-999,-999.0,-999.0,-999,0.00,,,0.00,weatherlink.com 1.10,2013-07-15 00:37:00,
2013-07-14 18:52:00,-999.0,-99.9,29.71,North,-999,-999.0,-999.0,-999,0.00,,,0.00,weatherlink.com 1.10,2013-07-15 00:52:00,
2013-07-14 19:08:00,-999.0,-99.9,29.71,North,-999,-999.0,-999.0,-999,0.00,,,0.00,weatherlink.com 1.10,2013-07-15 01:08:00,
2013-07-14 19:23:00,-999.0,-99.9,29.70,North,-999,-999.0,-999.0,-999,0.00,,,0.00,weatherlink.com 1.10,2013-07-15 01:23:00,
2013-07-14 19:38:00,-999.0,-99.9,29.70,North,-999,-999.0,-999.0,-999,0.00,,,0.00,weatherlink.com 1.10,2013-07-15 01:38:00,
2013-07-14 19:53:00,-999.0,-99.9,29.70,North,-999,-999.0,-999.0,-999,0.00,,,0.00,weatherlink.com 1.10,2013-07-15 01:53:00,
2013-07-14 20:08:00,-999.0,-99.9,29.70,North,-999,-999.0,-999.0,-999,0.00,,,0.00,weatherlink.com 1.10,2013-07-15 02:08:00,
2013-07-14 20:23:00,83.3,38.0,29.70,North,355,5.0,7.0,20,0.00,,,0.00,weatherlink.com 1.10,2013-07-15 02:23:00,
2013-07-14 20:38:00,83.0,38.0,29.70,NNW,346,4.0,8.0,20,0.00,,,0.00,weatherlink.com 1.10,2013-07-15 02:38:00,
2013-07-14 20:53:00,81.9,38.0,29.70,NNE,12,6.0,8.0,21,0.00,,,0.00,weatherlink.com 1.10,2013-07-15 02:53:00,
2013-07-14 21:08:00,80.4,38.0,29.70,North,11,5.0,7.0,22,0.00,,,0.00,weatherlink.com 1.10,2013-07-15 03:08:00,
2013-07-14 21:23:00,78.9,39.0,29.71,North,355,6.0,9.0,24,0.00,,,0.00,weatherlink.com 1.10,2013-07-15 03:23:00,
2013-07-14 21:38:00,77.3,38.0,29.71,North,11,7.0,8.0,24,0.00,,,0.00,weatherlink.com 1.10,2013-07-15 03:38:00,
2013-07-14 21:53:00,77.2,38.0,29.72,NNE,19,6.0,8.0,24,0.00,,,0.00,weatherlink.com 1.10,2013-07-15 03:53:00,
2013-07-14 22:08:00,76.1,38.0,29.73,North,360,5.0,8.0,25,0.00,,,0.00,weatherlink.com 1.10,2013-07-15 04:08:00,
2013-07-14 22:23:00,75.1,36.0,29.73,NNE,13,7.0,9.0,24,0.00,,,0.00,weatherlink.com 1.10,2013-07-15 04:23:00,
2013-07-14 22:38:00,75.8,35.0,29.73,NNE,29,7.0,10.0,23,0.00,,,0.00,weatherlink.com 1.10,2013-07-15 04:38:00,
2013-07-14 22:53:00,75.3,35.0,29.73,NNE,30,8.0,11.0,23,0.00,,,0.00,weatherlink.com 1.10,2013-07-15 04:53:00,
2013-07-14 23:08:00,74.7,36.0,29.73,NE,41,9.0,12.0,24,0.00,,,0.00,weatherlink.com 1.10,2013-07-15 05:08:00,
2013-07-14 23:23:00,73.7,36.0,29.73,NNE,26,6.0,10.0,25,0.00,,,0.00,weatherlink.com 1.10,2013-07-15 05:23:00,
2013-07-14 23:38:00,72.2,36.0,29.73,North,5,7.0,10.0,27,0.00,,,0.00,weatherlink.com 1.10,2013-07-15 05:38:00,
2013-07-14 23:53:00,71.7,39.0,29.73,NW,317,3.0,9.0,30,0.00,,,0.00,weatherlink.com 1.10,2013-07-15 05:53:00,